Time;durP1;ratioP1;P1;durP2;ratioP2;P2;SDS_P1;SDS_P2;PMS_P1;PMS_P2;Temp;Humidity;BMP_temperature;BMP_pressure;BME280_temperature;BME280_humidity;BME280_pressure;Samples;Min_cycle;Max_cycle;Signal;HPM_P1;HPM_P2
2021/07/05 00:01:32;;;;;;;0.70;0.70;;;17.40;99.90;;;;;;5070265;28;20029;-78
2021/07/05 00:03:57;;;;;;;1.95;0.70;;;17.40;99.90;;;;;;5066328;28;20547;-78
2021/07/05 00:06:23;;;;;;;0.60;0.60;;;17.40;99.90;;;;;;5057514;28;20028;-79
2021/07/05 00:08:49;;;;;;;2.08;0.80;;;17.40;99.90;;;;;;5065010;28;20028;-77
2021/07/05 00:11:14;;;;;;;0.60;0.60;;;17.30;99.90;;;;;;5059436;28;20027;-78
2021/07/05 00:13:40;;;;;;;0.80;0.80;;;17.30;99.90;;;;;;5075518;28;20028;-78
2021/07/05 00:16:06;;;;;;;0.80;0.68;;;17.30;99.90;;;;;;5066456;28;20405;-77
2021/07/05 00:18:32;;;;;;;0.50;0.50;;;17.20;99.90;;;;;;5069201;28;20558;-77
2021/07/05 00:20:57;;;;;;;1.92;0.60;;;17.30;99.90;;;;;;5075196;28;20028;-78
2021/07/05 00:23:23;;;;;;;0.80;0.68;;;17.30;99.90;;;;;;5070361;28;20021;-78
2021/07/05 00:25:49;;;;;;;0.80;0.80;;;17.30;99.90;;;;;;5074359;28;20025;-78
2021/07/05 00:28:15;;;;;;;1.55;0.70;;;17.30;99.90;;;;;;5072885;28;20028;-79
2021/07/05 00:30:40;;;;;;;0.90;0.82;;;17.40;99.90;;;;;;5043653;28;20449;-79
2021/07/05 00:33:06;;;;;;;0.60;0.60;;;17.40;99.90;;;;;;5069743;28;20104;-78
2021/07/05 00:35:33;;;;;;;0.70;0.70;;;17.30;99.90;;;;;;5061048;28;20086;-77
2021/07/05 00:37:59;;;;;;;0.68;0.68;;;17.40;99.90;;;;;;5062204;28;20722;-78
2021/07/05 00:40:25;;;;;;;1.00;0.75;;;17.40;99.90;;;;;;5068244;28;20052;-78
2021/07/05 00:42:52;;;;;;;0.75;0.75;;;17.40;99.90;;;;;;5061992;28;20025;-78
2021/07/05 00:45:21;;;;;;;1.83;0.77;;;17.50;99.90;;;;;;5072539;28;20032;-78
2021/07/05 00:47:46;;;;;;;0.80;0.80;;;17.50;99.90;;;;;;5067009;28;20017;-78
2021/07/05 00:50:14;;;;;;;1.23;0.68;;;17.40;99.90;;;;;;5057620;28;20386;-77
2021/07/05 00:52:41;;;;;;;0.77;0.77;;;17.50;99.90;;;;;;5071588;28;20052;-78
2021/07/05 00:55:09;;;;;;;0.73;0.70;;;17.50;99.90;;;;;;5077353;28;20032;-77
2021/07/05 00:57:35;;;;;;;0.50;0.50;;;17.50;99.90;;;;;;5069401;28;20021;-78
2021/07/05 01:00:01;;;;;;;2.13;0.90;;;17.50;99.90;;;;;;5075964;28;20021;-77
2021/07/05 01:02:27;;;;;;;0.70;0.70;;;17.40;99.90;;;;;;5056810;28;20090;-78
2021/07/05 01:04:53;;;;;;;2.25;2.05;;;17.50;99.90;;;;;;5071923;28;20087;-79
2021/07/05 01:07:21;;;;;;;1.00;1.00;;;17.50;99.90;;;;;;5062242;28;20021;-79
2021/07/05 01:09:47;;;;;;;1.65;0.77;;;17.50;99.90;;;;;;5059389;28;20021;-78
2021/07/05 01:12:12;;;;;;;1.75;0.60;;;17.50;99.90;;;;;;5044092;28;20539;-78
2021/07/05 01:14:39;;;;;;;1.83;0.70;;;17.60;99.90;;;;;;5074395;28;20032;-77
2021/07/05 01:17:13;;;;;;;2.83;1.05;;;17.60;99.90;;;;;;5063118;28;20039;-79
2021/07/05 01:19:41;;;;;;;0.70;0.70;;;17.60;99.90;;;;;;5058733;28;20119;-77
2021/07/05 01:22:07;;;;;;;0.98;0.90;;;17.70;99.90;;;;;;5050155;28;20393;-77
2021/07/05 01:24:33;;;;;;;0.68;0.60;;;17.60;99.90;;;;;;5075250;28;20021;-78
2021/07/05 01:26:59;;;;;;;4.18;0.60;;;17.60;99.90;;;;;;5066759;28;20039;-77
2021/07/05 01:29:24;;;;;;;3.33;1.02;;;17.60;99.90;;;;;;5074194;28;20028;-77
2021/07/05 01:31:50;;;;;;;0.60;0.60;;;17.60;99.90;;;;;;5066222;28;20370;-77
2021/07/05 01:34:15;;;;;;;1.95;0.70;;;17.60;99.90;;;;;;5075843;28;20024;-78
2021/07/05 01:36:43;;;;;;;2.30;0.80;;;17.60;99.90;;;;;;5066738;28;20037;-77
2021/07/05 01:39:09;;;;;;;0.80;0.80;;;17.60;99.90;;;;;;5075405;28;20021;-78
2021/07/05 01:41:34;;;;;;;1.30;0.80;;;17.60;99.90;;;;;;5072173;28;20056;-78
2021/07/05 01:44:00;;;;;;;1.45;0.82;;;17.60;99.90;;;;;;5066260;28;20021;-78
2021/07/05 01:46:26;;;;;;;1.00;0.70;;;17.60;99.90;;;;;;5068900;28;20034;-78
2021/07/05 01:48:51;;;;;;;1.90;0.95;;;17.60;99.90;;;;;;5066713;28;20085;-78
2021/07/05 01:51:17;;;;;;;3.10;0.68;;;17.60;99.90;;;;;;5067800;28;20028;-77
2021/07/05 01:53:43;;;;;;;2.50;0.60;;;17.50;99.90;;;;;;5055957;28;20071;-78
2021/07/05 01:56:10;;;;;;;1.08;0.77;;;17.60;99.90;;;;;;5042939;28;20531;-78
2021/07/05 01:58:35;;;;;;;2.25;0.70;;;17.60;99.90;;;;;;5058040;28;20033;-78
2021/07/05 02:01:01;;;;;;;1.10;0.80;;;17.60;99.90;;;;;;5066626;28;20411;-79
2021/07/05 02:03:27;;;;;;;1.77;0.60;;;17.60;99.90;;;;;;5055755;28;20097;-78
2021/07/05 02:05:53;;;;;;;2.40;0.73;;;17.60;99.90;;;;;;5066251;28;20021;-78
2021/07/05 02:08:18;;;;;;;3.75;0.57;;;17.60;99.90;;;;;;5075183;28;20028;-78
2021/07/05 02:10:45;;;;;;;3.03;0.90;;;17.60;99.90;;;;;;5069057;28;20508;-78
2021/07/05 02:13:18;;;;;;;0.85;0.60;;;17.50;99.90;;;;;;5075731;28;20035;-78
2021/07/05 02:15:45;;;;;;;0.88;0.80;;;17.60;99.90;;;;;;5064906;28;20065;-78
2021/07/05 02:18:11;;;;;;;0.82;0.65;;;17.60;99.90;;;;;;5055936;28;20120;-78
2021/07/05 02:20:37;;;;;;;1.00;0.70;;;17.60;99.90;;;;;;5068286;28;20371;-78
2021/07/05 02:23:05;;;;;;;1.05;1.02;;;17.50;99.90;;;;;;5053539;28;20087;-77
2021/07/05 02:25:32;;;;;;;3.28;0.98;;;17.60;99.90;;;;;;5066289;28;20021;-77
2021/07/05 02:28:06;;;;;;;0.70;0.70;;;17.60;99.90;;;;;;5072521;28;20035;-77
2021/07/05 02:30:32;;;;;;;3.90;1.50;;;17.60;99.90;;;;;;5061555;28;20103;-77
2021/07/05 02:32:59;;;;;;;0.68;0.68;;;17.60;99.90;;;;;;5079719;28;20021;-79
2021/07/05 02:35:28;;;;;;;0.98;0.60;;;17.60;99.90;;;;;;5069966;28;20044;-77
2021/07/05 02:37:55;;;;;;;1.13;1.02;;;17.70;99.90;;;;;;5079404;28;20045;-77
2021/07/05 02:40:22;;;;;;;2.35;1.05;;;17.70;99.90;;;;;;5081958;28;20041;-77
2021/07/05 02:42:48;;;;;;;1.85;1.40;;;17.70;99.90;;;;;;5059108;28;20053;-77
2021/07/05 02:45:23;;;;;;;0.75;0.73;;;17.70;99.90;;;;;;5088657;28;20020;-77
2021/07/05 02:47:54;;;;;;;2.15;0.80;;;17.70;99.90;;;;;;5095901;28;20020;-78
2021/07/05 02:50:20;;;;;;;1.77;0.60;;;17.60;99.90;;;;;;5071719;28;20066;-78
2021/07/05 02:52:46;;;;;;;0.90;0.80;;;17.60;99.90;;;;;;5063025;28;20009;-78
2021/07/05 02:55:13;;;;;;;1.17;0.80;;;17.70;99.90;;;;;;5087960;28;20025;-78
2021/07/05 02:57:43;;;;;;;2.15;0.90;;;17.60;99.90;;;;;;5093852;28;20020;-78
2021/07/05 03:00:15;;;;;;;0.60;0.60;;;17.60;99.90;;;;;;5078756;28;20013;-78
2021/07/05 03:02:41;;;;;;;1.75;0.90;;;17.60;99.90;;;;;;5096981;28;20017;-78
2021/07/05 03:05:08;;;;;;;1.20;0.70;;;17.60;99.90;;;;;;5097010;28;20021;-78
2021/07/05 03:07:35;;;;;;;2.92;0.80;;;17.70;99.90;;;;;;5097438;28;20013;-78
2021/07/05 03:10:01;;;;;;;2.05;0.85;;;17.70;99.90;;;;;;5066980;28;20020;-78
2021/07/05 03:12:27;;;;;;;2.63;0.63;;;17.60;99.90;;;;;;5077542;28;20012;-78
2021/07/05 03:14:55;;;;;;;0.60;0.60;;;17.60;99.90;;;;;;5089436;28;20013;-77
2021/07/05 03:17:21;;;;;;;3.58;1.13;;;17.60;99.90;;;;;;5091575;28;20009;-77
2021/07/05 03:19:46;;;;;;;2.92;1.00;;;17.60;99.90;;;;;;5084859;28;20075;-79
2021/07/05 03:22:13;;;;;;;2.95;0.77;;;17.60;99.90;;;;;;5065321;28;20062;-78
2021/07/05 03:24:39;;;;;;;1.75;1.13;;;17.60;99.90;;;;;;5061491;28;20025;-79
2021/07/05 03:27:05;;;;;;;1.15;0.90;;;17.70;99.90;;;;;;5043902;28;20032;-78
2021/07/05 03:29:31;;;;;;;2.35;0.90;;;17.60;99.90;;;;;;5052108;28;20111;-78
2021/07/05 03:31:58;;;;;;;0.80;0.80;;;17.70;99.90;;;;;;5069405;28;20016;-77
2021/07/05 03:34:24;;;;;;;0.60;0.60;;;17.70;99.90;;;;;;5084955;28;20029;-78
2021/07/05 03:36:49;;;;;;;1.40;0.80;;;17.60;99.90;;;;;;5080019;28;20012;-77
2021/07/05 03:39:15;;;;;;;1.92;0.80;;;17.60;99.90;;;;;;5079314;28;20025;-79
2021/07/05 03:41:41;;;;;;;1.83;0.80;;;17.60;99.90;;;;;;5088962;28;20051;-79
2021/07/05 03:44:06;;;;;;;1.17;0.60;;;17.70;99.90;;;;;;5074950;28;20017;-79
2021/07/05 03:46:32;;;;;;;1.10;1.00;;;17.60;99.90;;;;;;5086476;28;20037;-77
2021/07/05 03:48:57;;;;;;;1.00;1.00;;;17.60;99.90;;;;;;5066016;28;20047;-77
2021/07/05 03:51:23;;;;;;;1.23;0.80;;;17.60;99.90;;;;;;5077719;28;20013;-77
2021/07/05 03:53:48;;;;;;;1.00;0.80;;;17.70;99.90;;;;;;5086264;28;20055;-78
2021/07/05 03:56:14;;;;;;;1.70;1.00;;;17.60;99.90;;;;;;5076265;28;20040;-78
2021/07/05 03:58:39;;;;;;;2.85;1.17;;;17.60;99.90;;;;;;5086872;28;20057;-77
2021/07/05 04:01:05;;;;;;;2.60;0.95;;;17.60;99.90;;;;;;5076060;28;20028;-78
2021/07/05 04:03:31;;;;;;;3.85;1.00;;;17.60;99.90;;;;;;5058651;28;20032;-77
2021/07/05 04:05:59;;;;;;;1.52;1.05;;;17.60;99.90;;;;;;5060322;28;20498;-78
2021/07/05 04:08:27;;;;;;;2.35;0.90;;;17.50;99.90;;;;;;5064487;28;20051;-78
2021/07/05 04:10:53;;;;;;;1.65;1.08;;;17.60;99.90;;;;;;5055633;28;20487;-77
2021/07/05 04:13:21;;;;;;;3.53;1.00;;;17.60;99.90;;;;;;5058083;28;20028;-78
2021/07/05 04:15:48;;;;;;;3.03;1.15;;;17.60;99.90;;;;;;5055429;28;20104;-78
2021/07/05 04:18:13;;;;;;;2.40;1.00;;;17.70;99.90;;;;;;5062157;28;20055;-78
2021/07/05 04:20:39;;;;;;;1.08;1.02;;;17.80;99.90;;;;;;5076549;28;20021;-78
2021/07/05 04:23:05;;;;;;;1.95;1.23;;;17.80;99.90;;;;;;5091257;28;20013;-77
2021/07/05 04:25:30;;;;;;;0.65;0.65;;;17.80;99.90;;;;;;5064173;28;20029;-78
2021/07/05 04:27:56;;;;;;;1.05;0.88;;;17.80;99.90;;;;;;5078145;28;20032;-77
2021/07/05 04:30:22;;;;;;;1.10;1.02;;;17.80;99.90;;;;;;5060360;28;20032;-78
2021/07/05 04:32:48;;;;;;;1.50;1.00;;;17.80;99.90;;;;;;5058366;28;20598;-78
2021/07/05 04:35:16;;;;;;;1.73;1.00;;;17.80;99.90;;;;;;5065425;28;20094;-78
2021/07/05 04:37:43;;;;;;;5.78;1.15;;;17.90;99.90;;;;;;5060910;28;20525;-78
2021/07/05 04:40:11;;;;;;;4.00;0.85;;;18.00;99.90;;;;;;5064276;28;20039;-79
2021/07/05 04:42:39;;;;;;;2.08;0.85;;;18.00;99.90;;;;;;5061120;28;20021;-79
2021/07/05 04:45:06;;;;;;;1.10;1.05;;;18.10;99.90;;;;;;5063246;28;20470;-78
2021/07/05 04:47:33;;;;;;;3.15;1.20;;;18.20;99.90;;;;;;5060131;28;20039;-78
2021/07/05 04:49:58;;;;;;;4.00;1.17;;;18.20;99.90;;;;;;5068827;28;20029;-79
2021/07/05 04:52:24;;;;;;;1.55;1.10;;;18.30;99.90;;;;;;5076920;28;20025;-78
2021/07/05 04:54:50;;;;;;;2.17;1.00;;;18.30;99.90;;;;;;5069468;28;20017;-78
2021/07/05 04:57:16;;;;;;;2.00;0.80;;;18.40;99.90;;;;;;5053130;28;20124;-78
2021/07/05 04:59:42;;;;;;;1.30;1.00;;;18.50;99.90;;;;;;5066615;28;20040;-78
2021/07/05 05:02:08;;;;;;;1.92;0.80;;;18.50;99.90;;;;;;5073794;28;20020;-78
2021/07/05 05:04:33;;;;;;;0.98;0.90;;;18.60;99.90;;;;;;5071511;28;20115;-77
2021/07/05 05:06:59;;;;;;;5.18;1.58;;;18.70;99.90;;;;;;5057131;28;20032;-78
2021/07/05 05:09:24;;;;;;;1.27;0.90;;;18.70;99.90;;;;;;5069168;28;20027;-79
2021/07/05 05:11:51;;;;;;;1.30;1.00;;;18.80;99.90;;;;;;5057485;28;20032;-78
2021/07/05 05:14:17;;;;;;;2.88;1.00;;;18.80;99.90;;;;;;5050870;28;20029;-78
2021/07/05 05:16:43;;;;;;;0.98;0.90;;;18.80;99.90;;;;;;5057414;28;20037;-78
2021/07/05 05:19:08;;;;;;;1.48;1.00;;;18.90;99.90;;;;;;5065026;28;20090;-79
2021/07/05 05:21:34;;;;;;;1.63;0.90;;;18.90;99.90;;;;;;5063472;28;20025;-77
2021/07/05 05:24:00;;;;;;;3.25;0.80;;;18.80;99.90;;;;;;5071020;28;20021;-78
2021/07/05 05:26:26;;;;;;;1.10;1.00;;;18.80;99.90;;;;;;5074327;28;20027;-78
2021/07/05 05:28:52;;;;;;;1.33;1.10;;;18.80;99.90;;;;;;5057114;28;20028;-79
2021/07/05 05:31:17;;;;;;;1.55;0.90;;;18.90;99.90;;;;;;5051374;28;20035;-77
2021/07/05 05:33:43;;;;;;;1.13;0.93;;;19.00;99.90;;;;;;5068028;28;20516;-78
2021/07/05 05:36:09;;;;;;;0.85;0.80;;;19.10;99.90;;;;;;5057134;28;20023;-78
2021/07/05 05:38:35;;;;;;;3.15;0.85;;;19.20;99.90;;;;;;5075072;28;20028;-78
2021/07/05 05:41:01;;;;;;;1.55;1.15;;;19.30;99.90;;;;;;5059001;28;20021;-78
2021/07/05 05:43:26;;;;;;;4.63;0.98;;;19.40;99.90;;;;;;5072519;28;20387;-78
2021/07/05 05:45:52;;;;;;;2.35;0.95;;;19.30;99.90;;;;;;5068632;28;20036;-77
2021/07/05 05:48:17;;;;;;;4.10;1.10;;;19.20;99.90;;;;;;5058516;28;20031;-78
2021/07/05 05:50:43;;;;;;;2.35;0.68;;;19.10;99.90;;;;;;5050388;28;20020;-79
2021/07/05 05:53:08;;;;;;;2.08;1.08;;;19.10;99.90;;;;;;5052185;28;20027;-79
2021/07/05 05:55:34;;;;;;;3.72;0.80;;;19.00;99.90;;;;;;5063508;28;20103;-78
2021/07/05 05:58:00;;;;;;;2.15;1.20;;;19.00;99.90;;;;;;5046587;28;20115;-79
2021/07/05 06:00:26;;;;;;;5.00;1.20;;;19.00;99.90;;;;;;5063113;28;20068;-79
2021/07/05 06:02:53;;;;;;;1.90;0.98;;;18.90;99.90;;;;;;5072110;28;20036;-78
2021/07/05 06:05:20;;;;;;;1.63;0.82;;;18.90;99.90;;;;;;5057995;28;20030;-79
2021/07/05 06:07:49;;;;;;;4.35;1.08;;;18.90;99.90;;;;;;5064761;28;20491;-77
2021/07/05 06:10:16;;;;;;;1.33;0.80;;;18.90;99.90;;;;;;5060703;28;20016;-78
2021/07/05 06:12:42;;;;;;;2.72;0.90;;;18.90;99.90;;;;;;5058230;28;20020;-78
2021/07/05 06:15:09;;;;;;;4.85;1.63;;;18.90;99.90;;;;;;5065081;28;20025;-78
2021/07/05 06:17:35;;;;;;;1.05;0.85;;;18.90;99.90;;;;;;5066690;28;20512;-79
2021/07/05 06:20:02;;;;;;;2.45;1.00;;;18.80;99.90;;;;;;5040867;28;20021;-78
2021/07/05 06:22:29;;;;;;;0.90;0.80;;;18.80;99.90;;;;;;5063636;28;20024;-79
2021/07/05 06:24:56;;;;;;;1.13;1.00;;;18.80;99.90;;;;;;5059094;28;20056;-78
2021/07/05 06:27:22;;;;;;;1.42;0.80;;;18.80;99.90;;;;;;5062252;28;20039;-79
2021/07/05 06:29:48;;;;;;;1.17;0.90;;;18.80;99.90;;;;;;5061098;28;20025;-77
2021/07/05 06:32:13;;;;;;;1.20;0.63;;;18.80;99.90;;;;;;5066671;28;20100;-78
2021/07/05 06:34:39;;;;;;;3.53;0.93;;;18.80;99.90;;;;;;5067171;28;20025;-79
2021/07/05 06:37:06;;;;;;;4.70;0.95;;;18.80;99.90;;;;;;5069955;28;20110;-78
2021/07/05 06:39:32;;;;;;;1.17;1.08;;;18.70;99.90;;;;;;5070564;28;20032;-77
2021/07/05 06:41:57;;;;;;;3.78;0.93;;;18.70;99.90;;;;;;5077684;28;20040;-78
2021/07/05 06:44:23;;;;;;;1.77;1.08;;;18.70;99.90;;;;;;5063846;28;20437;-78
2021/07/05 06:46:49;;;;;;;1.65;0.80;;;18.80;99.90;;;;;;5064756;28;20036;-78
2021/07/05 06:49:17;;;;;;;1.08;0.98;;;18.70;99.90;;;;;;5059019;28;20524;-79
2021/07/05 06:51:46;;;;;;;2.33;1.15;;;18.70;99.90;;;;;;5058104;28;20032;-79
2021/07/05 06:54:12;;;;;;;1.33;0.98;;;18.80;99.90;;;;;;5069426;28;20028;-78
2021/07/05 06:56:38;;;;;;;2.22;0.98;;;19.00;99.90;;;;;;5061685;28;20100;-78
2021/07/05 06:59:04;;;;;;;1.67;0.90;;;19.10;99.90;;;;;;5064608;28;20692;-78
2021/07/05 07:01:29;;;;;;;2.80;1.13;;;19.30;99.90;;;;;;5048800;28;20125;-79
2021/07/05 07:03:55;;;;;;;3.25;1.00;;;19.40;99.90;;;;;;5060189;28;20035;-78
2021/07/05 07:06:22;;;;;;;3.05;1.40;;;19.40;99.90;;;;;;5072118;28;20021;-79
2021/07/05 07:08:47;;;;;;;1.70;0.90;;;19.50;99.90;;;;;;5070661;28;20028;-79
2021/07/05 07:11:13;;;;;;;7.38;0.95;;;19.50;99.90;;;;;;5071743;28;20028;-79
2021/07/05 07:13:40;;;;;;;4.80;1.38;;;19.40;99.90;;;;;;5071987;28;20036;-78
2021/07/05 07:16:06;;;;;;;1.67;1.00;;;19.40;99.90;;;;;;5066388;28;20367;-79
2021/07/05 07:21:03;;;;;;;1.63;0.93;;;19.30;99.90;;;;;;5072801;28;20021;-77
2021/07/05 07:23:29;;;;;;;2.92;0.95;;;19.30;99.90;;;;;;5066391;28;20069;-77
2021/07/05 07:25:55;;;;;;;5.38;1.08;;;19.30;99.90;;;;;;5070450;28;20444;-78
2021/07/05 07:28:20;;;;;;;2.13;1.08;;;19.20;99.90;;;;;;5045735;28;20027;-77
2021/07/05 07:30:46;;;;;;;3.15;0.80;;;19.30;99.90;;;;;;5055267;28;20037;-78
2021/07/05 07:33:12;;;;;;;3.20;1.27;;;19.40;99.90;;;;;;5060415;28;20115;-77
2021/07/05 07:35:37;;;;;;;2.72;0.68;;;19.40;99.90;;;;;;5038616;28;20017;-78
2021/07/05 07:38:04;;;;;;;8.88;1.38;;;19.50;99.90;;;;;;5061741;28;20035;-78
2021/07/05 07:40:36;;;;;;;1.85;0.95;;;19.50;99.90;;;;;;5068120;28;20424;-80
2021/07/05 07:43:02;;;;;;;1.33;0.70;;;19.60;99.90;;;;;;5071902;28;20482;-78
2021/07/05 07:45:27;;;;;;;1.23;0.70;;;19.80;99.90;;;;;;5073739;28;20025;-79
2021/07/05 07:47:53;;;;;;;3.83;0.80;;;19.70;99.90;;;;;;5069793;28;20025;-78
2021/07/05 07:50:20;;;;;;;2.05;0.90;;;19.70;99.90;;;;;;5060573;28;20025;-78
2021/07/05 07:52:46;;;;;;;1.17;0.90;;;19.80;99.90;;;;;;5060093;28;20031;-80
2021/07/05 07:55:13;;;;;;;4.53;1.27;;;19.90;99.90;;;;;;5070142;28;20474;-78
2021/07/05 07:57:40;;;;;;;1.08;0.88;;;20.00;99.90;;;;;;5070281;28;20029;-79
2021/07/05 08:00:08;;;;;;;1.10;0.75;;;20.00;99.90;;;;;;5050012;28;20017;-77
2021/07/05 08:02:34;;;;;;;2.13;0.95;;;20.00;99.90;;;;;;5075321;28;20082;-78
2021/07/05 08:04:59;;;;;;;1.02;0.75;;;19.90;99.90;;;;;;5063882;28;20021;-77
2021/07/05 08:07:25;;;;;;;1.13;0.80;;;19.90;99.90;;;;;;5063164;28;20047;-77
2021/07/05 08:09:50;;;;;;;3.20;0.82;;;20.00;99.90;;;;;;5057900;28;20100;-77
2021/07/05 08:12:16;;;;;;;1.83;0.90;;;19.90;99.90;;;;;;5069311;28;20040;-78
2021/07/05 08:14:42;;;;;;;2.03;0.90;;;19.90;99.90;;;;;;5069465;28;20072;-79
2021/07/05 08:17:07;;;;;;;2.33;0.90;;;19.90;99.90;;;;;;5048497;28;20099;-79
2021/07/05 08:19:33;;;;;;;1.95;1.30;;;19.90;99.90;;;;;;5064318;28;20390;-78
2021/07/05 08:21:59;;;;;;;1.38;0.57;;;19.80;99.90;;;;;;5067484;28;20025;-78
2021/07/05 08:24:25;;;;;;;2.28;1.15;;;20.00;99.90;;;;;;5051856;28;20028;-79
2021/07/05 08:26:50;;;;;;;3.38;1.83;;;20.30;99.90;;;;;;5054864;28;20024;-78
2021/07/05 08:29:16;;;;;;;3.58;2.90;;;20.30;99.90;;;;;;5051302;28;20028;-78
2021/07/05 08:31:41;;;;;;;1.02;0.90;;;20.20;99.90;;;;;;5075089;28;20029;-78
2021/07/05 08:34:07;;;;;;;1.67;0.90;;;20.20;99.90;;;;;;5067127;28;20021;-78
2021/07/05 08:36:32;;;;;;;1.75;0.80;;;20.20;99.90;;;;;;5077070;28;20024;-79
2021/07/05 08:38:58;;;;;;;2.22;1.00;;;20.20;99.90;;;;;;5065304;28;20036;-79
2021/07/05 08:41:24;;;;;;;1.08;0.70;;;20.10;99.90;;;;;;5053758;28;20017;-79
2021/07/05 08:43:51;;;;;;;3.15;0.90;;;20.10;99.90;;;;;;5065066;28;20029;-78
2021/07/05 08:46:21;;;;;;;1.92;0.70;;;20.10;99.90;;;;;;5076065;28;20278;-78
2021/07/05 08:48:46;;;;;;;2.90;1.10;;;20.00;99.90;;;;;;5066051;28;20450;-78
2021/07/05 08:51:18;;;;;;;0.90;0.50;;;19.90;99.90;;;;;;5067890;28;20056;-79
2021/07/05 08:53:44;;;;;;;1.35;0.80;;;20.00;99.90;;;;;;5069249;28;20028;-78
2021/07/05 08:56:10;;;;;;;1.40;1.20;;;20.00;99.90;;;;;;5063730;28;20025;-78
2021/07/05 08:58:38;;;;;;;3.33;1.67;;;20.10;99.90;;;;;;5059129;28;20056;-78
2021/07/05 09:01:03;;;;;;;1.48;0.70;;;20.20;99.90;;;;;;5069092;28;20078;-79
2021/07/05 09:03:31;;;;;;;3.85;0.93;;;20.20;99.90;;;;;;5056268;28;20029;-77
2021/07/05 09:06:12;;;;;;;1.58;0.98;;;20.10;99.90;;;;;;5065048;28;20116;-78
2021/07/05 09:08:40;;;;;;;1.33;0.98;;;20.10;99.90;;;;;;5062298;28;20051;-78
2021/07/05 09:11:11;;;;;;;3.08;1.10;;;20.00;99.90;;;;;;5068388;28;20074;-78
2021/07/05 09:13:52;;;;;;;;;;;20.10;99.90;;;;;;5056443;28;20040;-79
2021/07/05 09:16:36;;;;;;;2.30;0.88;;;20.30;99.90;;;;;;5070610;28;19904;-79
2021/07/05 09:19:13;;;;;;;2.92;1.08;;;20.20;99.90;;;;;;5063564;28;20094;-79
2021/07/05 09:21:38;;;;;;;2.63;0.88;;;20.30;99.90;;;;;;5069055;28;20025;-79
2021/07/05 09:24:06;;;;;;;1.42;0.80;;;20.20;99.90;;;;;;5064536;28;20067;-80
2021/07/05 09:26:36;;;;;;;1.92;1.20;;;20.30;99.90;;;;;;5072039;28;20029;-79
2021/07/05 09:29:06;;;;;;;1.60;0.85;;;20.20;99.90;;;;;;5069995;28;20489;-78
2021/07/05 09:31:40;;;;;;;4.18;0.98;;;20.20;99.90;;;;;;5063705;28;20085;-79
2021/07/05 09:34:15;;;;;;;4.20;1.73;;;20.30;99.90;;;;;;5043815;28;20029;-79
2021/07/05 09:36:41;;;;;;;2.42;0.85;;;20.30;99.90;;;;;;5063506;28;20100;-77
2021/07/05 09:39:16;;;;;;;2.55;1.23;;;20.30;99.90;;;;;;5062494;28;20111;-78
2021/07/05 09:41:42;;;;;;;0.85;0.80;;;20.00;99.90;;;;;;5063018;28;20023;-78
2021/07/05 09:44:16;;;;;;;1.48;0.90;;;20.10;99.90;;;;;;5054445;28;20044;-78
2021/07/05 09:46:49;;;;;;;1.27;0.77;;;19.80;99.90;;;;;;5064012;28;20516;-78
2021/07/05 09:49:29;;;;;;;3.85;0.70;;;19.60;99.90;;;;;;5061711;28;20441;-79
2021/07/05 09:52:10;;;;;;;1.43;0.70;;;19.30;99.90;;;;;;5066792;28;20361;-78
2021/07/05 09:54:38;;;;;;;1.95;0.60;;;19.10;99.90;;;;;;5067346;28;20350;-78
2021/07/05 09:57:25;;;;;;;0.88;0.52;;;19.00;99.90;;;;;;5062417;28;20039;-78
2021/07/05 10:00:12;;;;;;;2.30;0.40;;;19.10;99.90;;;;;;5056225;28;20021;-78
2021/07/05 10:03:03;;;;;;;0.98;0.70;;;19.10;99.90;;;;;;5048434;28;20040;-77
2021/07/05 10:05:34;;;;;;;2.45;1.42;;;19.20;99.90;;;;;;5059895;28;20147;-79
2021/07/05 10:08:06;;;;;;;1.50;0.90;;;19.10;99.90;;;;;;5046432;28;20098;-77
2021/07/05 10:10:33;;;;;;;2.78;0.70;;;19.00;99.90;;;;;;5058822;28;20032;-79
2021/07/05 10:13:05;;;;;;;2.17;0.70;;;19.10;99.90;;;;;;5063894;28;20045;-79
2021/07/05 10:15:32;;;;;;;1.13;0.57;;;19.10;1.00;;;;;;5067721;28;20025;-78
2021/07/05 10:17:58;;;;;;;1.52;1.20;;;19.10;1.00;;;;;;5073248;28;20020;-78
2021/07/05 10:20:35;;;;;;;2.08;0.90;;;19.00;1.00;;;;;;5058359;28;20105;-79
2021/07/05 10:23:04;;;;;;;1.10;0.70;;;19.10;1.00;;;;;;5060188;28;20017;-78
2021/07/05 10:25:32;;;;;;;2.60;0.93;;;19.10;1.00;;;;;;5069906;28;20448;-78
2021/07/05 10:27:58;;;;;;;1.65;1.38;;;19.00;1.00;;;;;;5054958;28;20413;-78
2021/07/05 10:30:24;;;;;;;1.63;0.75;;;19.00;1.00;;;;;;5064974;28;20029;-78
2021/07/05 10:32:50;;;;;;;0.77;0.52;;;19.20;99.90;;;;;;5056790;28;20025;-79
2021/07/05 10:35:24;;;;;;;0.95;0.80;;;19.30;99.90;;;;;;5065955;28;20040;-78
2021/07/05 10:38:05;;;;;;;0.77;0.70;;;19.50;99.90;;;;;;5072363;28;20028;-79
2021/07/05 10:40:40;;;;;;;2.30;1.10;;;19.60;99.90;;;;;;5064283;28;20032;-77
2021/07/05 10:43:07;;;;;;;0.82;0.68;;;19.70;99.90;;;;;;5054827;28;20021;-78
2021/07/05 10:45:52;;;;;;;1.05;0.60;;;19.70;99.90;;;;;;5053131;28;20088;-78
2021/07/05 10:48:42;;;;;;;1.10;0.57;;;19.70;99.90;;;;;;5063806;28;20028;-77
2021/07/05 10:51:10;;;;;;;0.85;0.60;;;19.90;99.90;;;;;;5071703;28;20025;-78
2021/07/05 10:53:35;;;;;;;1.17;0.70;;;20.00;99.90;;;;;;5070901;28;20031;-79
2021/07/05 10:56:02;;;;;;;1.10;0.50;;;20.30;99.90;;;;;;5049719;28;20111;-79
2021/07/05 10:58:33;;;;;;;0.50;0.50;;;20.30;99.90;;;;;;5072868;28;20223;-78
2021/07/05 11:01:00;;;;;;;0.35;0.35;;;20.40;99.90;;;;;;5065413;28;20669;-78
2021/07/05 11:03:38;;;;;;;2.10;0.73;;;20.60;99.90;;;;;;5058498;28;20402;-79
2021/07/05 11:06:09;;;;;;;1.23;0.57;;;20.60;99.90;;;;;;5056862;28;20028;-80
2021/07/05 11:08:44;;;;;;;0.88;0.50;;;20.70;99.90;;;;;;5039544;28;20033;-79
2021/07/05 11:11:31;;;;;;;0.90;0.70;;;20.70;99.90;;;;;;5064766;28;20371;-79
2021/07/05 11:14:15;;;;;;;2.33;1.52;;;21.00;99.90;;;;;;5053786;28;20048;-78
2021/07/05 11:17:16;;;;;;;1.90;0.98;;;21.20;99.90;;;;;;5059343;28;20060;-77
2021/07/05 11:19:47;;;;;;;1.70;0.77;;;21.20;99.90;;;;;;5055952;28;20029;-78
2021/07/05 11:22:36;;;;;;;0.43;0.40;;;21.20;99.90;;;;;;5067530;28;20028;-78
2021/07/05 11:25:17;;;;;;;1.80;0.60;;;21.20;99.90;;;;;;5071134;28;20025;-78
2021/07/05 11:27:59;;;;;;;4.55;0.65;;;21.10;99.90;;;;;;5062240;28;20075;-78
2021/07/05 11:30:40;;;;;;;4.32;0.60;;;21.10;99.90;;;;;;5064596;28;20025;-78
2021/07/05 11:33:12;;;;;;;3.97;0.60;;;21.10;99.90;;;;;;5060216;28;20091;-78
2021/07/05 11:35:37;;;;;;;2.58;0.60;;;21.00;99.90;;;;;;5040214;28;20025;-78
2021/07/05 11:38:23;;;;;;;0.70;0.60;;;20.80;99.90;;;;;;5061691;28;20028;-78
2021/07/05 11:41:04;;;;;;;0.80;0.60;;;20.80;99.90;;;;;;5044244;28;20037;-79
2021/07/05 11:44:03;;;;;;;0.85;0.82;;;20.60;99.90;;;;;;5062727;28;20024;-79
2021/07/05 11:46:28;;;;;;;1.20;0.60;;;20.50;99.90;;;;;;5052620;28;20026;-78
2021/07/05 11:49:06;;;;;;;2.75;2.15;;;20.30;99.90;;;;;;5064081;28;20082;-78
2021/07/05 11:51:39;;;;;;;3.13;1.05;;;20.50;99.90;;;;;;5054019;28;20040;-79
2021/07/05 11:54:07;;;;;;;1.42;0.80;;;20.40;1.00;;;;;;5064645;28;20032;-79
2021/07/05 11:56:41;;;;;;;6.43;0.70;;;20.50;99.90;;;;;;5053745;28;20036;-78
2021/07/05 11:59:25;;;;;;;0.90;0.60;;;20.70;99.90;;;;;;5050245;28;20033;-78
2021/07/05 12:01:56;;;;;;;2.88;0.98;;;21.00;99.90;;;;;;5065970;28;20024;-78
2021/07/05 12:04:27;;;;;;;1.13;0.50;;;21.20;99.90;;;;;;5071362;28;20037;-78
2021/07/05 12:06:52;;;;;;;1.05;0.70;;;21.80;99.90;;;;;;5061674;28;20428;-78
2021/07/05 12:09:19;;;;;;;1.83;1.08;;;22.00;99.90;;;;;;5061758;28;20029;-78
2021/07/05 12:11:48;;;;;;;1.17;0.73;;;22.10;99.90;;;;;;5062714;28;20025;-78
2021/07/05 12:14:21;;;;;;;1.80;0.82;;;22.00;99.90;;;;;;5042781;28;20517;-75
2021/07/05 12:16:53;;;;;;;2.20;0.77;;;22.20;99.90;;;;;;5068881;28;20105;-77
2021/07/05 12:19:19;;;;;;;4.15;0.95;;;22.00;99.90;;;;;;5063793;28;20029;-76
2021/07/05 12:21:53;;;;;;;1.10;0.60;;;22.00;99.90;;;;;;5053666;28;20044;-77
2021/07/05 12:24:27;;;;;;;8.05;0.88;;;21.90;99.90;;;;;;5063632;28;20428;-76
2021/07/05 12:26:57;;;;;;;1.85;1.67;;;21.80;99.90;;;;;;5034473;28;20250;-76
2021/07/05 12:29:27;;;;;;;2.00;0.97;;;21.70;99.90;;;;;;5058474;28;20021;-77
2021/07/05 12:31:57;;;;;;;0.52;0.50;;;21.60;99.90;;;;;;5050424;28;20456;-78
2021/07/05 12:34:40;;;;;;;3.65;1.05;;;21.60;99.90;;;;;;5060075;28;20041;-76
2021/07/05 12:37:11;;;;;;;1.10;0.77;;;21.50;99.90;;;;;;5054856;28;20025;-76
2021/07/05 12:39:48;;;;;;;2.83;0.60;;;21.80;99.90;;;;;;5069765;28;20402;-77
2021/07/05 12:42:20;;;;;;;1.77;0.52;;;21.90;99.90;;;;;;5062837;28;20025;-76
2021/07/05 12:44:46;;;;;;;0.73;0.70;;;21.90;99.90;;;;;;5057112;28;20031;-77
2021/07/05 12:47:12;;;;;;;2.60;0.65;;;22.20;99.90;;;;;;5066216;28;20021;-77
2021/07/05 12:49:37;;;;;;;1.00;0.70;;;22.30;99.90;;;;;;5055749;28;20027;-77
2021/07/05 12:52:05;;;;;;;1.63;0.60;;;22.50;99.90;;;;;;5065908;28;20096;-76
2021/07/05 12:54:30;;;;;;;4.07;0.80;;;22.60;99.90;;;;;;5074565;28;20016;-77
2021/07/05 12:57:13;;;;;;;2.97;1.33;;;22.90;99.90;;;;;;5066094;28;20433;-77